sensor_id;sensor_type;location;lat;lon;timestamp;P1;durP1;ratioP1;P2;durP2;ratioP2
11498;SDS011;5806;48.748;9.278;2023-04-24T00:01:29;0.50;;;0.40;;
11498;SDS011;5806;48.748;9.278;2023-04-24T00:03:57;0.50;;;0.50;;
11498;SDS011;5806;48.748;9.278;2023-04-24T00:06:25;0.97;;;0.60;;
11498;SDS011;5806;48.748;9.278;2023-04-24T00:08:54;0.57;;;0.50;;
11498;SDS011;5806;48.748;9.278;2023-04-24T00:11:22;0.50;;;0.47;;
11498;SDS011;5806;48.748;9.278;2023-04-24T00:13:49;0.37;;;0.37;;
11498;SDS011;5806;48.748;9.278;2023-04-24T00:16:17;0.53;;;0.53;;
11498;SDS011;5806;48.748;9.278;2023-04-24T00:18:44;1.00;;;0.60;;
11498;SDS011;5806;48.748;9.278;2023-04-24T00:21:14;1.83;;;0.60;;
11498;SDS011;5806;48.748;9.278;2023-04-24T00:23:43;0.40;;;0.40;;
11498;SDS011;5806;48.748;9.278;2023-04-24T00:26:11;0.90;;;0.60;;
11498;SDS011;5806;48.748;9.278;2023-04-24T00:28:40;2.50;;;0.70;;
11498;SDS011;5806;48.748;9.278;2023-04-24T00:31:07;2.03;;;0.70;;
11498;SDS011;5806;48.748;9.278;2023-04-24T00:33:35;0.70;;;0.50;;
11498;SDS011;5806;48.748;9.278;2023-04-24T00:36:03;0.63;;;0.63;;
11498;SDS011;5806;48.748;9.278;2023-04-24T00:38:31;1.03;;;0.70;;
11498;SDS011;5806;48.748;9.278;2023-04-24T00:40:58;1.03;;;0.60;;
11498;SDS011;5806;48.748;9.278;2023-04-24T00:43:26;0.83;;;0.60;;
11498;SDS011;5806;48.748;9.278;2023-04-24T00:45:54;0.90;;;0.60;;
11498;SDS011;5806;48.748;9.278;2023-04-24T00:48:21;0.70;;;0.70;;
11498;SDS011;5806;48.748;9.278;2023-04-24T00:50:51;0.80;;;0.67;;
11498;SDS011;5806;48.748;9.278;2023-04-24T00:53:19;0.67;;;0.60;;
11498;SDS011;5806;48.748;9.278;2023-04-24T00:55:46;0.77;;;0.67;;
11498;SDS011;5806;48.748;9.278;2023-04-24T00:58:14;1.70;;;0.60;;
11498;SDS011;5806;48.748;9.278;2023-04-24T01:00:41;0.90;;;0.63;;
11498;SDS011;5806;48.748;9.278;2023-04-24T01:03:11;0.90;;;0.70;;
11498;SDS011;5806;48.748;9.278;2023-04-24T01:05:41;1.57;;;0.77;;
11498;SDS011;5806;48.748;9.278;2023-04-24T01:08:09;0.57;;;0.57;;
11498;SDS011;5806;48.748;9.278;2023-04-24T01:10:37;1.17;;;0.80;;
11498;SDS011;5806;48.748;9.278;2023-04-24T01:13:10;0.90;;;0.70;;
11498;SDS011;5806;48.748;9.278;2023-04-24T01:15:39;0.83;;;0.80;;
11498;SDS011;5806;48.748;9.278;2023-04-24T01:18:07;0.90;;;0.70;;
11498;SDS011;5806;48.748;9.278;2023-04-24T01:20:34;0.90;;;0.80;;
11498;SDS011;5806;48.748;9.278;2023-04-24T01:23:06;0.70;;;0.70;;
11498;SDS011;5806;48.748;9.278;2023-04-24T01:25:34;2.77;;;1.00;;
11498;SDS011;5806;48.748;9.278;2023-04-24T01:28:02;2.40;;;0.90;;
11498;SDS011;5806;48.748;9.278;2023-04-24T01:30:30;4.60;;;0.90;;
11498;SDS011;5806;48.748;9.278;2023-04-24T01:32:59;1.43;;;1.00;;
11498;SDS011;5806;48.748;9.278;2023-04-24T01:35:28;1.70;;;1.00;;
11498;SDS011;5806;48.748;9.278;2023-04-24T01:37:55;1.70;;;1.10;;
11498;SDS011;5806;48.748;9.278;2023-04-24T01:40:24;2.70;;;0.97;;
11498;SDS011;5806;48.748;9.278;2023-04-24T01:42:51;1.93;;;1.30;;
11498;SDS011;5806;48.748;9.278;2023-04-24T01:45:19;4.73;;;1.40;;
11498;SDS011;5806;48.748;9.278;2023-04-24T01:47:47;1.67;;;1.27;;
11498;SDS011;5806;48.748;9.278;2023-04-24T01:50:16;2.13;;;1.27;;
11498;SDS011;5806;48.748;9.278;2023-04-24T01:52:44;1.43;;;1.30;;
11498;SDS011;5806;48.748;9.278;2023-04-24T01:55:11;1.80;;;1.70;;
11498;SDS011;5806;48.748;9.278;2023-04-24T01:57:39;4.10;;;2.13;;
11498;SDS011;5806;48.748;9.278;2023-04-24T02:00:07;3.70;;;2.40;;
11498;SDS011;5806;48.748;9.278;2023-04-24T02:02:38;1.90;;;1.70;;
11498;SDS011;5806;48.748;9.278;2023-04-24T02:05:07;3.00;;;2.40;;
11498;SDS011;5806;48.748;9.278;2023-04-24T02:07:37;4.23;;;2.80;;
11498;SDS011;5806;48.748;9.278;2023-04-24T02:10:05;6.43;;;2.80;;
11498;SDS011;5806;48.748;9.278;2023-04-24T02:12:33;4.87;;;2.80;;
11498;SDS011;5806;48.748;9.278;2023-04-24T02:15:01;3.70;;;2.67;;
11498;SDS011;5806;48.748;9.278;2023-04-24T02:17:28;4.07;;;3.07;;
11498;SDS011;5806;48.748;9.278;2023-04-24T02:19:57;3.50;;;3.20;;
11498;SDS011;5806;48.748;9.278;2023-04-24T02:22:25;4.87;;;3.40;;
11498;SDS011;5806;48.748;9.278;2023-04-24T02:24:52;4.97;;;3.40;;
11498;SDS011;5806;48.748;9.278;2023-04-24T02:30:00;5.53;;;3.37;;
11498;SDS011;5806;48.748;9.278;2023-04-24T02:32:29;4.50;;;3.33;;
11498;SDS011;5806;48.748;9.278;2023-04-24T02:34:57;4.40;;;3.40;;
11498;SDS011;5806;48.748;9.278;2023-04-24T02:37:24;4.07;;;3.40;;
11498;SDS011;5806;48.748;9.278;2023-04-24T02:39:52;6.07;;;3.63;;
11498;SDS011;5806;48.748;9.278;2023-04-24T02:42:20;5.70;;;3.40;;
11498;SDS011;5806;48.748;9.278;2023-04-24T02:44:47;5.23;;;3.60;;
11498;SDS011;5806;48.748;9.278;2023-04-24T02:47:16;4.43;;;4.00;;
11498;SDS011;5806;48.748;9.278;2023-04-24T02:49:44;5.40;;;3.50;;
11498;SDS011;5806;48.748;9.278;2023-04-24T02:52:11;4.77;;;3.53;;
11498;SDS011;5806;48.748;9.278;2023-04-24T02:54:40;4.57;;;3.53;;
11498;SDS011;5806;48.748;9.278;2023-04-24T02:57:08;6.00;;;3.67;;
11498;SDS011;5806;48.748;9.278;2023-04-24T02:59:38;4.97;;;3.70;;
11498;SDS011;5806;48.748;9.278;2023-04-24T03:02:06;5.10;;;3.90;;
11498;SDS011;5806;48.748;9.278;2023-04-24T03:04:34;7.30;;;4.10;;
11498;SDS011;5806;48.748;9.278;2023-04-24T03:07:02;6.90;;;4.00;;
11498;SDS011;5806;48.748;9.278;2023-04-24T03:09:30;6.83;;;4.57;;
11498;SDS011;5806;48.748;9.278;2023-04-24T03:11:57;7.13;;;4.63;;
11498;SDS011;5806;48.748;9.278;2023-04-24T03:14:26;6.80;;;4.17;;
11498;SDS011;5806;48.748;9.278;2023-04-24T03:16:55;8.37;;;5.10;;
11498;SDS011;5806;48.748;9.278;2023-04-24T03:19:23;6.27;;;4.03;;
11498;SDS011;5806;48.748;9.278;2023-04-24T03:21:50;6.97;;;4.60;;
11498;SDS011;5806;48.748;9.278;2023-04-24T03:24:18;7.17;;;4.80;;
11498;SDS011;5806;48.748;9.278;2023-04-24T03:26:46;4.87;;;3.80;;
11498;SDS011;5806;48.748;9.278;2023-04-24T03:29:13;5.50;;;4.30;;
11498;SDS011;5806;48.748;9.278;2023-04-24T03:31:41;7.00;;;4.70;;
11498;SDS011;5806;48.748;9.278;2023-04-24T03:34:09;4.90;;;4.40;;
11498;SDS011;5806;48.748;9.278;2023-04-24T03:36:36;5.20;;;4.40;;
11498;SDS011;5806;48.748;9.278;2023-04-24T03:39:04;5.87;;;4.57;;
11498;SDS011;5806;48.748;9.278;2023-04-24T03:41:31;7.37;;;4.17;;
11498;SDS011;5806;48.748;9.278;2023-04-24T03:43:59;6.13;;;4.70;;
11498;SDS011;5806;48.748;9.278;2023-04-24T03:46:26;6.20;;;4.53;;
11498;SDS011;5806;48.748;9.278;2023-04-24T03:48:54;7.97;;;4.80;;
11498;SDS011;5806;48.748;9.278;2023-04-24T03:51:21;6.70;;;4.57;;
11498;SDS011;5806;48.748;9.278;2023-04-24T03:53:49;8.20;;;5.37;;
11498;SDS011;5806;48.748;9.278;2023-04-24T03:56:17;7.40;;;4.93;;
11498;SDS011;5806;48.748;9.278;2023-04-24T03:58:45;6.17;;;4.57;;
11498;SDS011;5806;48.748;9.278;2023-04-24T04:01:13;5.83;;;4.67;;
11498;SDS011;5806;48.748;9.278;2023-04-24T04:03:42;5.30;;;4.53;;
11498;SDS011;5806;48.748;9.278;2023-04-24T04:06:09;7.00;;;4.77;;
11498;SDS011;5806;48.748;9.278;2023-04-24T04:08:38;6.63;;;4.20;;
11498;SDS011;5806;48.748;9.278;2023-04-24T04:11:06;6.30;;;4.60;;
11498;SDS011;5806;48.748;9.278;2023-04-24T04:13:33;6.33;;;4.67;;
11498;SDS011;5806;48.748;9.278;2023-04-24T04:16:02;6.23;;;4.43;;
11498;SDS011;5806;48.748;9.278;2023-04-24T04:18:29;5.70;;;4.83;;
11498;SDS011;5806;48.748;9.278;2023-04-24T04:20:57;5.13;;;4.60;;
11498;SDS011;5806;48.748;9.278;2023-04-24T04:23:26;5.70;;;4.10;;
11498;SDS011;5806;48.748;9.278;2023-04-24T04:25:54;7.87;;;4.83;;
11498;SDS011;5806;48.748;9.278;2023-04-24T04:28:21;6.47;;;5.13;;
11498;SDS011;5806;48.748;9.278;2023-04-24T04:30:50;6.13;;;4.80;;
11498;SDS011;5806;48.748;9.278;2023-04-24T04:33:22;9.10;;;4.40;;
11498;SDS011;5806;48.748;9.278;2023-04-24T04:35:50;5.43;;;4.67;;
11498;SDS011;5806;48.748;9.278;2023-04-24T04:38:18;6.50;;;4.57;;
11498;SDS011;5806;48.748;9.278;2023-04-24T04:40:46;9.50;;;5.37;;
11498;SDS011;5806;48.748;9.278;2023-04-24T04:43:16;5.00;;;4.50;;
11498;SDS011;5806;48.748;9.278;2023-04-24T04:45:44;4.97;;;4.20;;
11498;SDS011;5806;48.748;9.278;2023-04-24T04:48:13;7.37;;;4.60;;
11498;SDS011;5806;48.748;9.278;2023-04-24T04:50:42;6.03;;;5.00;;
11498;SDS011;5806;48.748;9.278;2023-04-24T04:53:10;6.00;;;4.67;;
11498;SDS011;5806;48.748;9.278;2023-04-24T04:55:38;5.97;;;4.13;;
11498;SDS011;5806;48.748;9.278;2023-04-24T04:58:06;8.37;;;5.13;;
11498;SDS011;5806;48.748;9.278;2023-04-24T05:00:33;4.63;;;4.00;;
11498;SDS011;5806;48.748;9.278;2023-04-24T05:03:02;4.87;;;4.37;;
11498;SDS011;5806;48.748;9.278;2023-04-24T05:05:30;4.97;;;4.20;;
11498;SDS011;5806;48.748;9.278;2023-04-24T05:07:58;5.60;;;4.70;;
11498;SDS011;5806;48.748;9.278;2023-04-24T05:10:25;7.43;;;4.73;;
11498;SDS011;5806;48.748;9.278;2023-04-24T05:12:53;4.67;;;4.20;;
11498;SDS011;5806;48.748;9.278;2023-04-24T05:15:20;5.23;;;4.43;;
11498;SDS011;5806;48.748;9.278;2023-04-24T05:17:48;5.20;;;3.93;;
11498;SDS011;5806;48.748;9.278;2023-04-24T05:20:15;5.17;;;4.50;;
11498;SDS011;5806;48.748;9.278;2023-04-24T05:22:43;5.80;;;3.87;;
11498;SDS011;5806;48.748;9.278;2023-04-24T05:25:10;5.70;;;4.53;;
11498;SDS011;5806;48.748;9.278;2023-04-24T05:27:38;6.17;;;4.37;;
11498;SDS011;5806;48.748;9.278;2023-04-24T05:30:06;5.93;;;4.70;;
11498;SDS011;5806;48.748;9.278;2023-04-24T05:32:34;5.40;;;4.30;;
11498;SDS011;5806;48.748;9.278;2023-04-24T05:35:02;5.10;;;4.27;;
11498;SDS011;5806;48.748;9.278;2023-04-24T05:37:29;5.43;;;4.27;;
11498;SDS011;5806;48.748;9.278;2023-04-24T05:39:57;5.10;;;3.77;;
11498;SDS011;5806;48.748;9.278;2023-04-24T05:42:24;9.33;;;5.00;;
11498;SDS011;5806;48.748;9.278;2023-04-24T05:44:52;5.70;;;4.70;;
11498;SDS011;5806;48.748;9.278;2023-04-24T05:47:20;6.33;;;4.67;;
11498;SDS011;5806;48.748;9.278;2023-04-24T05:49:52;5.17;;;4.67;;
11498;SDS011;5806;48.748;9.278;2023-04-24T05:52:19;5.63;;;4.70;;
11498;SDS011;5806;48.748;9.278;2023-04-24T05:54:46;5.97;;;4.67;;
11498;SDS011;5806;48.748;9.278;2023-04-24T05:57:14;7.73;;;5.07;;
11498;SDS011;5806;48.748;9.278;2023-04-24T05:59:41;6.50;;;5.00;;
11498;SDS011;5806;48.748;9.278;2023-04-24T06:02:09;10.13;;;5.53;;
11498;SDS011;5806;48.748;9.278;2023-04-24T06:04:36;6.80;;;5.43;;
11498;SDS011;5806;48.748;9.278;2023-04-24T06:07:03;7.00;;;5.00;;
11498;SDS011;5806;48.748;9.278;2023-04-24T06:09:31;8.47;;;5.53;;
11498;SDS011;5806;48.748;9.278;2023-04-24T06:11:59;8.27;;;5.67;;
11498;SDS011;5806;48.748;9.278;2023-04-24T06:14:26;8.87;;;5.53;;
11498;SDS011;5806;48.748;9.278;2023-04-24T06:16:54;10.07;;;6.10;;
11498;SDS011;5806;48.748;9.278;2023-04-24T06:19:23;8.70;;;5.97;;
11498;SDS011;5806;48.748;9.278;2023-04-24T06:21:50;8.23;;;6.17;;
11498;SDS011;5806;48.748;9.278;2023-04-24T06:24:18;7.67;;;5.63;;
11498;SDS011;5806;48.748;9.278;2023-04-24T06:26:46;7.73;;;5.50;;
11498;SDS011;5806;48.748;9.278;2023-04-24T06:29:13;9.17;;;6.17;;
11498;SDS011;5806;48.748;9.278;2023-04-24T06:31:41;8.23;;;6.13;;
11498;SDS011;5806;48.748;9.278;2023-04-24T06:34:08;7.43;;;5.90;;
11498;SDS011;5806;48.748;9.278;2023-04-24T06:36:35;9.13;;;6.50;;
11498;SDS011;5806;48.748;9.278;2023-04-24T06:39:03;8.80;;;6.87;;
11498;SDS011;5806;48.748;9.278;2023-04-24T06:41:30;7.30;;;6.00;;
11498;SDS011;5806;48.748;9.278;2023-04-24T06:43:58;8.60;;;6.27;;
11498;SDS011;5806;48.748;9.278;2023-04-24T06:46:25;8.50;;;6.57;;
11498;SDS011;5806;48.748;9.278;2023-04-24T06:48:53;9.20;;;6.50;;
11498;SDS011;5806;48.748;9.278;2023-04-24T06:51:24;8.40;;;5.90;;
11498;SDS011;5806;48.748;9.278;2023-04-24T06:53:52;6.40;;;5.50;;
11498;SDS011;5806;48.748;9.278;2023-04-24T06:56:22;7.33;;;5.87;;
11498;SDS011;5806;48.748;9.278;2023-04-24T06:58:50;6.37;;;4.20;;
11498;SDS011;5806;48.748;9.278;2023-04-24T07:01:19;4.10;;;3.27;;
11498;SDS011;5806;48.748;9.278;2023-04-24T07:03:46;4.27;;;2.30;;
11498;SDS011;5806;48.748;9.278;2023-04-24T07:06:13;2.93;;;2.40;;
11498;SDS011;5806;48.748;9.278;2023-04-24T07:08:42;3.70;;;2.60;;
11498;SDS011;5806;48.748;9.278;2023-04-24T07:11:10;4.07;;;2.67;;
11498;SDS011;5806;48.748;9.278;2023-04-24T07:13:37;3.97;;;2.70;;
11498;SDS011;5806;48.748;9.278;2023-04-24T07:16:07;3.10;;;2.13;;
11498;SDS011;5806;48.748;9.278;2023-04-24T07:18:35;2.67;;;2.23;;
11498;SDS011;5806;48.748;9.278;2023-04-24T07:21:02;2.73;;;2.03;;
11498;SDS011;5806;48.748;9.278;2023-04-24T07:23:30;2.80;;;2.00;;
11498;SDS011;5806;48.748;9.278;2023-04-24T07:25:57;3.57;;;2.00;;
11498;SDS011;5806;48.748;9.278;2023-04-24T07:28:25;3.93;;;2.07;;
11498;SDS011;5806;48.748;9.278;2023-04-24T07:30:52;1.83;;;1.60;;
11498;SDS011;5806;48.748;9.278;2023-04-24T07:33:20;2.23;;;1.50;;
11498;SDS011;5806;48.748;9.278;2023-04-24T07:35:47;1.90;;;1.70;;
11498;SDS011;5806;48.748;9.278;2023-04-24T07:38:15;2.00;;;1.63;;
11498;SDS011;5806;48.748;9.278;2023-04-24T07:40:42;2.77;;;1.83;;
11498;SDS011;5806;48.748;9.278;2023-04-24T07:43:09;1.70;;;1.60;;
11498;SDS011;5806;48.748;9.278;2023-04-24T07:45:37;1.73;;;1.53;;
11498;SDS011;5806;48.748;9.278;2023-04-24T07:48:05;3.03;;;1.57;;
11498;SDS011;5806;48.748;9.278;2023-04-24T07:50:34;1.17;;;1.03;;
11498;SDS011;5806;48.748;9.278;2023-04-24T07:53:02;1.37;;;1.10;;
11498;SDS011;5806;48.748;9.278;2023-04-24T07:55:29;1.97;;;1.07;;
11498;SDS011;5806;48.748;9.278;2023-04-24T07:57:57;1.87;;;1.10;;
11498;SDS011;5806;48.748;9.278;2023-04-24T08:00:24;1.73;;;0.97;;
11498;SDS011;5806;48.748;9.278;2023-04-24T08:02:52;2.27;;;1.20;;
11498;SDS011;5806;48.748;9.278;2023-04-24T08:05:19;2.97;;;0.97;;
11498;SDS011;5806;48.748;9.278;2023-04-24T08:07:47;1.60;;;0.97;;
11498;SDS011;5806;48.748;9.278;2023-04-24T08:10:15;1.20;;;0.80;;
11498;SDS011;5806;48.748;9.278;2023-04-24T08:12:43;0.83;;;0.80;;
11498;SDS011;5806;48.748;9.278;2023-04-24T08:15:10;0.70;;;0.63;;
11498;SDS011;5806;48.748;9.278;2023-04-24T08:17:38;1.00;;;0.90;;
11498;SDS011;5806;48.748;9.278;2023-04-24T08:20:06;2.10;;;0.83;;
11498;SDS011;5806;48.748;9.278;2023-04-24T08:22:35;0.90;;;0.80;;
11498;SDS011;5806;48.748;9.278;2023-04-24T08:25:03;0.77;;;0.63;;
11498;SDS011;5806;48.748;9.278;2023-04-24T08:27:31;0.93;;;0.83;;
11498;SDS011;5806;48.748;9.278;2023-04-24T08:29:58;2.00;;;1.10;;
11498;SDS011;5806;48.748;9.278;2023-04-24T08:32:26;1.90;;;1.17;;
11498;SDS011;5806;48.748;9.278;2023-04-24T08:34:56;1.37;;;1.20;;
11498;SDS011;5806;48.748;9.278;2023-04-24T08:37:25;1.07;;;0.77;;
11498;SDS011;5806;48.748;9.278;2023-04-24T08:39:53;1.37;;;1.20;;
11498;SDS011;5806;48.748;9.278;2023-04-24T08:42:21;2.93;;;1.00;;
11498;SDS011;5806;48.748;9.278;2023-04-24T08:44:49;4.17;;;1.00;;
11498;SDS011;5806;48.748;9.278;2023-04-24T08:47:17;1.70;;;0.80;;
11498;SDS011;5806;48.748;9.278;2023-04-24T08:49:46;1.57;;;1.20;;
11498;SDS011;5806;48.748;9.278;2023-04-24T08:52:16;2.07;;;0.93;;
11498;SDS011;5806;48.748;9.278;2023-04-24T08:54:45;2.37;;;1.10;;
11498;SDS011;5806;48.748;9.278;2023-04-24T08:57:14;1.80;;;1.10;;
11498;SDS011;5806;48.748;9.278;2023-04-24T08:59:42;2.13;;;1.17;;
11498;SDS011;5806;48.748;9.278;2023-04-24T09:02:11;1.80;;;1.50;;
11498;SDS011;5806;48.748;9.278;2023-04-24T09:04:40;3.83;;;1.50;;
11498;SDS011;5806;48.748;9.278;2023-04-24T09:07:09;2.87;;;1.57;;
11498;SDS011;5806;48.748;9.278;2023-04-24T09:09:38;4.73;;;2.07;;
11498;SDS011;5806;48.748;9.278;2023-04-24T09:12:07;2.83;;;1.93;;
11498;SDS011;5806;48.748;9.278;2023-04-24T09:14:35;2.83;;;2.00;;
11498;SDS011;5806;48.748;9.278;2023-04-24T09:17:08;3.00;;;1.70;;
11498;SDS011;5806;48.748;9.278;2023-04-24T09:19:35;3.73;;;2.33;;
11498;SDS011;5806;48.748;9.278;2023-04-24T09:22:06;3.60;;;2.40;;
11498;SDS011;5806;48.748;9.278;2023-04-24T09:24:34;3.73;;;2.80;;
11498;SDS011;5806;48.748;9.278;2023-04-24T09:27:02;3.13;;;2.60;;
11498;SDS011;5806;48.748;9.278;2023-04-24T09:29:31;4.80;;;2.87;;
11498;SDS011;5806;48.748;9.278;2023-04-24T09:31:58;3.90;;;2.90;;
11498;SDS011;5806;48.748;9.278;2023-04-24T09:34:27;3.63;;;3.17;;
11498;SDS011;5806;48.748;9.278;2023-04-24T09:36:55;4.53;;;3.47;;
11498;SDS011;5806;48.748;9.278;2023-04-24T09:39:22;5.60;;;3.63;;
11498;SDS011;5806;48.748;9.278;2023-04-24T09:41:50;4.43;;;3.70;;
11498;SDS011;5806;48.748;9.278;2023-04-24T09:44:21;5.93;;;4.10;;
11498;SDS011;5806;48.748;9.278;2023-04-24T09:46:54;7.07;;;3.93;;
11498;SDS011;5806;48.748;9.278;2023-04-24T09:49:23;5.07;;;4.40;;
11498;SDS011;5806;48.748;9.278;2023-04-24T09:52:03;6.47;;;4.17;;
11498;SDS011;5806;48.748;9.278;2023-04-24T09:54:31;5.87;;;4.13;;
11498;SDS011;5806;48.748;9.278;2023-04-24T09:56:58;6.07;;;3.83;;
11498;SDS011;5806;48.748;9.278;2023-04-24T09:59:26;7.63;;;4.80;;
11498;SDS011;5806;48.748;9.278;2023-04-24T10:01:53;6.13;;;4.40;;
11498;SDS011;5806;48.748;9.278;2023-04-24T10:04:26;7.60;;;4.27;;
11498;SDS011;5806;48.748;9.278;2023-04-24T10:06:55;6.30;;;5.07;;
11498;SDS011;5806;48.748;9.278;2023-04-24T10:09:24;6.53;;;5.17;;
11498;SDS011;5806;48.748;9.278;2023-04-24T10:11:53;8.47;;;5.57;;
11498;SDS011;5806;48.748;9.278;2023-04-24T10:14:24;8.23;;;5.93;;
11498;SDS011;5806;48.748;9.278;2023-04-24T10:16:55;9.73;;;6.57;;
11498;SDS011;5806;48.748;9.278;2023-04-24T10:19:25;9.83;;;7.10;;
11498;SDS011;5806;48.748;9.278;2023-04-24T10:21:52;8.73;;;6.43;;
11498;SDS011;5806;48.748;9.278;2023-04-24T10:24:21;8.53;;;6.07;;
11498;SDS011;5806;48.748;9.278;2023-04-24T10:26:48;10.40;;;7.07;;
11498;SDS011;5806;48.748;9.278;2023-04-24T10:29:17;6.13;;;5.47;;
11498;SDS011;5806;48.748;9.278;2023-04-24T10:31:46;9.63;;;6.20;;
11498;SDS011;5806;48.748;9.278;2023-04-24T10:34:14;10.03;;;5.97;;
11498;SDS011;5806;48.748;9.278;2023-04-24T10:36:48;8.70;;;5.50;;
11498;SDS011;5806;48.748;9.278;2023-04-24T10:39:17;9.13;;;5.40;;
11498;SDS011;5806;48.748;9.278;2023-04-24T10:41:48;8.37;;;5.67;;
11498;SDS011;5806;48.748;9.278;2023-04-24T10:44:16;7.10;;;4.67;;
11498;SDS011;5806;48.748;9.278;2023-04-24T10:46:44;8.17;;;5.87;;
11498;SDS011;5806;48.748;9.278;2023-04-24T10:49:15;12.87;;;4.93;;
11498;SDS011;5806;48.748;9.278;2023-04-24T10:51:52;6.50;;;5.00;;
11498;SDS011;5806;48.748;9.278;2023-04-24T10:54:24;11.77;;;5.10;;
11498;SDS011;5806;48.748;9.278;2023-04-24T10:56:53;9.47;;;5.13;;
11498;SDS011;5806;48.748;9.278;2023-04-24T10:59:41;8.03;;;4.93;;
11498;SDS011;5806;48.748;9.278;2023-04-24T11:02:09;9.60;;;4.43;;
11498;SDS011;5806;48.748;9.278;2023-04-24T11:04:37;7.53;;;4.47;;
11498;SDS011;5806;48.748;9.278;2023-04-24T11:07:04;7.83;;;4.23;;
11498;SDS011;5806;48.748;9.278;2023-04-24T11:09:32;7.57;;;3.70;;
11498;SDS011;5806;48.748;9.278;2023-04-24T11:12:05;9.37;;;4.77;;
11498;SDS011;5806;48.748;9.278;2023-04-24T11:22:34;8.53;;;3.47;;
11498;SDS011;5806;48.748;9.278;2023-04-24T11:25:02;7.83;;;3.70;;
11498;SDS011;5806;48.748;9.278;2023-04-24T11:27:31;8.27;;;3.40;;
11498;SDS011;5806;48.748;9.278;2023-04-24T11:30:07;9.10;;;3.53;;
11498;SDS011;5806;48.748;9.278;2023-04-24T11:32:36;11.57;;;3.67;;
11498;SDS011;5806;48.748;9.278;2023-04-24T11:35:13;9.40;;;3.33;;
11498;SDS011;5806;48.748;9.278;2023-04-24T11:37:50;7.63;;;3.40;;
11498;SDS011;5806;48.748;9.278;2023-04-24T11:40:20;8.00;;;3.10;;
11498;SDS011;5806;48.748;9.278;2023-04-24T11:42:52;7.13;;;3.33;;
11498;SDS011;5806;48.748;9.278;2023-04-24T11:45:22;7.93;;;3.50;;
11498;SDS011;5806;48.748;9.278;2023-04-24T11:47:55;9.43;;;3.90;;
11498;SDS011;5806;48.748;9.278;2023-04-24T11:50:23;7.90;;;3.53;;
11498;SDS011;5806;48.748;9.278;2023-04-24T11:52:53;8.93;;;4.07;;
11498;SDS011;5806;48.748;9.278;2023-04-24T11:57:55;8.43;;;4.33;;
11498;SDS011;5806;48.748;9.278;2023-04-24T12:00:25;11.57;;;4.20;;
11498;SDS011;5806;48.748;9.278;2023-04-24T12:03:11;9.33;;;4.50;;
11498;SDS011;5806;48.748;9.278;2023-04-24T12:05:37;11.07;;;4.90;;
11498;SDS011;5806;48.748;9.278;2023-04-24T12:08:05;11.40;;;4.70;;
11498;SDS011;5806;48.748;9.278;2023-04-24T12:10:32;8.00;;;4.40;;
11498;SDS011;5806;48.748;9.278;2023-04-24T12:13:00;8.33;;;4.47;;
11498;SDS011;5806;48.748;9.278;2023-04-24T12:15:28;9.93;;;4.73;;
11498;SDS011;5806;48.748;9.278;2023-04-24T12:17:56;11.33;;;5.10;;
11498;SDS011;5806;48.748;9.278;2023-04-24T12:20:27;7.67;;;4.93;;
11498;SDS011;5806;48.748;9.278;2023-04-24T12:22:57;8.80;;;5.10;;
11498;SDS011;5806;48.748;9.278;2023-04-24T12:25:32;11.43;;;5.93;;
11498;SDS011;5806;48.748;9.278;2023-04-24T12:30:48;13.03;;;6.57;;
11498;SDS011;5806;48.748;9.278;2023-04-24T12:33:10;14.23;;;6.07;;
11498;SDS011;5806;48.748;9.278;2023-04-24T12:35:39;9.83;;;6.10;;
11498;SDS011;5806;48.748;9.278;2023-04-24T12:38:07;8.73;;;4.90;;
11498;SDS011;5806;48.748;9.278;2023-04-24T12:40:36;10.63;;;5.33;;
11498;SDS011;5806;48.748;9.278;2023-04-24T12:43:17;14.43;;;6.10;;
11498;SDS011;5806;48.748;9.278;2023-04-24T12:45:49;11.67;;;5.50;;
11498;SDS011;5806;48.748;9.278;2023-04-24T12:48:16;13.90;;;5.90;;
11498;SDS011;5806;48.748;9.278;2023-04-24T12:50:45;9.20;;;5.80;;
11498;SDS011;5806;48.748;9.278;2023-04-24T12:53:13;10.37;;;4.80;;
11498;SDS011;5806;48.748;9.278;2023-04-24T12:55:41;9.10;;;4.73;;
11498;SDS011;5806;48.748;9.278;2023-04-24T12:58:10;12.63;;;5.00;;
11498;SDS011;5806;48.748;9.278;2023-04-24T13:00:38;11.60;;;5.00;;
11498;SDS011;5806;48.748;9.278;2023-04-24T13:03:05;10.87;;;4.73;;
11498;SDS011;5806;48.748;9.278;2023-04-24T13:05:33;7.93;;;4.37;;
11498;SDS011;5806;48.748;9.278;2023-04-24T13:08:00;10.90;;;4.60;;
11498;SDS011;5806;48.748;9.278;2023-04-24T13:10:28;8.90;;;4.03;;
11498;SDS011;5806;48.748;9.278;2023-04-24T13:12:55;9.03;;;4.33;;
11498;SDS011;5806;48.748;9.278;2023-04-24T13:15:23;9.10;;;4.37;;
11498;SDS011;5806;48.748;9.278;2023-04-24T13:17:50;9.30;;;4.13;;
11498;SDS011;5806;48.748;9.278;2023-04-24T13:20:18;7.73;;;4.57;;
11498;SDS011;5806;48.748;9.278;2023-04-24T13:22:46;9.73;;;3.83;;
11498;SDS011;5806;48.748;9.278;2023-04-24T13:25:13;9.30;;;4.50;;
11498;SDS011;5806;48.748;9.278;2023-04-24T13:27:42;8.77;;;4.30;;
11498;SDS011;5806;48.748;9.278;2023-04-24T13:30:10;7.73;;;4.67;;
11498;SDS011;5806;48.748;9.278;2023-04-24T13:32:38;8.17;;;4.13;;
11498;SDS011;5806;48.748;9.278;2023-04-24T13:35:05;7.47;;;4.73;;
11498;SDS011;5806;48.748;9.278;2023-04-24T13:37:33;6.90;;;4.37;;
11498;SDS011;5806;48.748;9.278;2023-04-24T13:40:00;8.83;;;4.10;;
11498;SDS011;5806;48.748;9.278;2023-04-24T13:42:30;7.20;;;3.77;;
11498;SDS011;5806;48.748;9.278;2023-04-24T13:44:57;9.57;;;3.40;;
11498;SDS011;5806;48.748;9.278;2023-04-24T13:47:25;6.27;;;3.40;;
11498;SDS011;5806;48.748;9.278;2023-04-24T13:49:52;6.00;;;4.00;;
11498;SDS011;5806;48.748;9.278;2023-04-24T13:52:20;8.83;;;4.03;;
11498;SDS011;5806;48.748;9.278;2023-04-24T13:54:47;9.30;;;3.93;;
11498;SDS011;5806;48.748;9.278;2023-04-24T13:57:14;8.30;;;3.73;;
11498;SDS011;5806;48.748;9.278;2023-04-24T13:59:42;8.43;;;3.67;;
11498;SDS011;5806;48.748;9.278;2023-04-24T14:02:10;7.30;;;3.70;;
11498;SDS011;5806;48.748;9.278;2023-04-24T14:04:38;6.30;;;3.67;;
11498;SDS011;5806;48.748;9.278;2023-04-24T14:07:05;5.83;;;3.43;;
11498;SDS011;5806;48.748;9.278;2023-04-24T14:09:34;9.23;;;4.37;;
11498;SDS011;5806;48.748;9.278;2023-04-24T14:12:01;9.60;;;3.53;;
11498;SDS011;5806;48.748;9.278;2023-04-24T14:14:29;7.60;;;3.40;;
11498;SDS011;5806;48.748;9.278;2023-04-24T14:16:56;6.37;;;3.43;;
11498;SDS011;5806;48.748;9.278;2023-04-24T14:19:24;6.70;;;3.27;;
11498;SDS011;5806;48.748;9.278;2023-04-24T14:21:51;8.97;;;3.60;;
11498;SDS011;5806;48.748;9.278;2023-04-24T14:24:20;8.43;;;3.33;;
11498;SDS011;5806;48.748;9.278;2023-04-24T14:26:48;7.43;;;3.30;;
11498;SDS011;5806;48.748;9.278;2023-04-24T14:29:15;5.60;;;3.10;;
11498;SDS011;5806;48.748;9.278;2023-04-24T14:31:43;6.77;;;3.77;;
11498;SDS011;5806;48.748;9.278;2023-04-24T14:34:10;7.13;;;3.70;;
11498;SDS011;5806;48.748;9.278;2023-04-24T14:36:39;8.10;;;4.20;;
11498;SDS011;5806;48.748;9.278;2023-04-24T14:39:08;7.13;;;4.10;;
11498;SDS011;5806;48.748;9.278;2023-04-24T14:41:36;7.33;;;4.00;;
11498;SDS011;5806;48.748;9.278;2023-04-24T14:44:04;8.37;;;3.67;;
11498;SDS011;5806;48.748;9.278;2023-04-24T14:46:32;9.53;;;3.67;;
11498;SDS011;5806;48.748;9.278;2023-04-24T14:49:00;8.57;;;3.70;;
11498;SDS011;5806;48.748;9.278;2023-04-24T14:51:27;5.10;;;3.67;;
11498;SDS011;5806;48.748;9.278;2023-04-24T14:53:56;7.30;;;3.90;;
11498;SDS011;5806;48.748;9.278;2023-04-24T14:56:24;7.73;;;4.53;;
11498;SDS011;5806;48.748;9.278;2023-04-24T14:58:51;8.80;;;3.37;;
11498;SDS011;5806;48.748;9.278;2023-04-24T15:01:19;7.20;;;4.07;;
11498;SDS011;5806;48.748;9.278;2023-04-24T15:03:47;3.80;;;3.10;;
11498;SDS011;5806;48.748;9.278;2023-04-24T15:06:15;3.97;;;3.03;;
11498;SDS011;5806;48.748;9.278;2023-04-24T15:08:42;4.97;;;3.10;;
11498;SDS011;5806;48.748;9.278;2023-04-24T15:11:10;4.67;;;3.07;;
11498;SDS011;5806;48.748;9.278;2023-04-24T15:13:37;5.73;;;3.33;;
11498;SDS011;5806;48.748;9.278;2023-04-24T15:16:05;6.73;;;2.73;;
11498;SDS011;5806;48.748;9.278;2023-04-24T15:18:32;5.93;;;3.13;;
11498;SDS011;5806;48.748;9.278;2023-04-24T15:21:00;5.47;;;2.60;;
11498;SDS011;5806;48.748;9.278;2023-04-24T15:23:27;4.43;;;2.87;;